sensor_id;sensor_type;location;lat;lon;timestamp;P1;durP1;ratioP1;P2;durP2;ratioP2
81306;SDS011;70775;50.846;3.224;2024-01-16T00:00:56;13.55;;;5.30;;
81306;SDS011;70775;50.846;3.224;2024-01-16T00:03:22;11.77;;;5.85;;
81306;SDS011;70775;50.846;3.224;2024-01-16T00:05:47;14.82;;;5.38;;
81306;SDS011;70775;50.846;3.224;2024-01-16T00:08:14;15.85;;;5.63;;
81306;SDS011;70775;50.846;3.224;2024-01-16T00:10:40;11.35;;;5.53;;
81306;SDS011;70775;50.846;3.224;2024-01-16T00:13:07;23.13;;;6.38;;
81306;SDS011;70775;50.846;3.224;2024-01-16T00:15:32;17.88;;;6.57;;
81306;SDS011;70775;50.846;3.224;2024-01-16T00:17:58;17.17;;;6.07;;
81306;SDS011;70775;50.846;3.224;2024-01-16T00:20:24;11.82;;;5.80;;
81306;SDS011;70775;50.846;3.224;2024-01-16T00:22:50;13.63;;;5.43;;
81306;SDS011;70775;50.846;3.224;2024-01-16T00:25:17;10.05;;;5.45;;
81306;SDS011;70775;50.846;3.224;2024-01-16T00:27:45;13.43;;;5.50;;
81306;SDS011;70775;50.846;3.224;2024-01-16T00:30:11;16.33;;;5.55;;
81306;SDS011;70775;50.846;3.224;2024-01-16T00:32:38;17.63;;;6.20;;
81306;SDS011;70775;50.846;3.224;2024-01-16T00:35:04;16.20;;;6.10;;
81306;SDS011;70775;50.846;3.224;2024-01-16T00:37:30;15.82;;;6.25;;
81306;SDS011;70775;50.846;3.224;2024-01-16T00:39:56;11.55;;;4.20;;
81306;SDS011;70775;50.846;3.224;2024-01-16T00:42:21;17.00;;;6.03;;
81306;SDS011;70775;50.846;3.224;2024-01-16T00:44:47;11.15;;;6.15;;
81306;SDS011;70775;50.846;3.224;2024-01-16T00:47:13;11.73;;;5.30;;
81306;SDS011;70775;50.846;3.224;2024-01-16T00:49:38;17.33;;;6.22;;
81306;SDS011;70775;50.846;3.224;2024-01-16T00:52:04;13.45;;;5.68;;
81306;SDS011;70775;50.846;3.224;2024-01-16T00:54:29;15.73;;;5.70;;
81306;SDS011;70775;50.846;3.224;2024-01-16T00:56:55;10.30;;;5.22;;
81306;SDS011;70775;50.846;3.224;2024-01-16T00:59:24;11.82;;;4.65;;
81306;SDS011;70775;50.846;3.224;2024-01-16T01:01:50;12.98;;;3.80;;
81306;SDS011;70775;50.846;3.224;2024-01-16T01:04:17;15.48;;;5.88;;
81306;SDS011;70775;50.846;3.224;2024-01-16T01:06:43;18.30;;;6.32;;
81306;SDS011;70775;50.846;3.224;2024-01-16T01:09:09;13.80;;;5.40;;
81306;SDS011;70775;50.846;3.224;2024-01-16T01:11:36;13.77;;;5.60;;
81306;SDS011;70775;50.846;3.224;2024-01-16T01:14:05;11.38;;;4.68;;
81306;SDS011;70775;50.846;3.224;2024-01-16T01:16:31;8.90;;;4.38;;
81306;SDS011;70775;50.846;3.224;2024-01-16T01:18:57;12.68;;;4.07;;
81306;SDS011;70775;50.846;3.224;2024-01-16T01:21:22;14.60;;;5.63;;
81306;SDS011;70775;50.846;3.224;2024-01-16T01:23:48;12.32;;;5.47;;
81306;SDS011;70775;50.846;3.224;2024-01-16T01:26:14;12.60;;;5.88;;
81306;SDS011;70775;50.846;3.224;2024-01-16T01:28:40;15.70;;;5.28;;
81306;SDS011;70775;50.846;3.224;2024-01-16T01:31:08;11.70;;;5.50;;
81306;SDS011;70775;50.846;3.224;2024-01-16T01:33:35;10.50;;;5.47;;
81306;SDS011;70775;50.846;3.224;2024-01-16T01:36:01;14.10;;;5.70;;
81306;SDS011;70775;50.846;3.224;2024-01-16T01:38:29;10.27;;;5.15;;
81306;SDS011;70775;50.846;3.224;2024-01-16T01:40:56;10.77;;;5.53;;
81306;SDS011;70775;50.846;3.224;2024-01-16T01:43:22;12.63;;;5.63;;
81306;SDS011;70775;50.846;3.224;2024-01-16T01:48:42;19.67;;;5.68;;
81306;SDS011;70775;50.846;3.224;2024-01-16T01:51:09;14.27;;;5.93;;
81306;SDS011;70775;50.846;3.224;2024-01-16T01:53:38;15.35;;;5.15;;
81306;SDS011;70775;50.846;3.224;2024-01-16T01:56:06;15.65;;;5.53;;
81306;SDS011;70775;50.846;3.224;2024-01-16T01:58:35;12.90;;;4.43;;
81306;SDS011;70775;50.846;3.224;2024-01-16T02:01:03;19.92;;;6.72;;
81306;SDS011;70775;50.846;3.224;2024-01-16T02:03:30;14.85;;;5.57;;
81306;SDS011;70775;50.846;3.224;2024-01-16T02:06:00;15.23;;;6.57;;
81306;SDS011;70775;50.846;3.224;2024-01-16T02:08:26;14.68;;;6.28;;
81306;SDS011;70775;50.846;3.224;2024-01-16T02:10:51;15.90;;;5.50;;
81306;SDS011;70775;50.846;3.224;2024-01-16T02:13:18;14.80;;;5.75;;
81306;SDS011;70775;50.846;3.224;2024-01-16T02:15:48;16.95;;;5.78;;
81306;SDS011;70775;50.846;3.224;2024-01-16T02:18:14;14.48;;;5.53;;
81306;SDS011;70775;50.846;3.224;2024-01-16T02:20:41;11.77;;;5.18;;
81306;SDS011;70775;50.846;3.224;2024-01-16T02:23:07;15.95;;;5.97;;
81306;SDS011;70775;50.846;3.224;2024-01-16T02:25:33;11.65;;;5.50;;
81306;SDS011;70775;50.846;3.224;2024-01-16T02:28:00;19.88;;;6.20;;
81306;SDS011;70775;50.846;3.224;2024-01-16T02:30:29;10.27;;;5.20;;
81306;SDS011;70775;50.846;3.224;2024-01-16T02:32:55;14.73;;;5.97;;
81306;SDS011;70775;50.846;3.224;2024-01-16T02:35:20;20.98;;;6.32;;
81306;SDS011;70775;50.846;3.224;2024-01-16T02:37:46;12.68;;;5.22;;
81306;SDS011;70775;50.846;3.224;2024-01-16T02:40:11;15.32;;;6.55;;
81306;SDS011;70775;50.846;3.224;2024-01-16T02:42:39;14.90;;;6.80;;
81306;SDS011;70775;50.846;3.224;2024-01-16T02:45:05;17.17;;;6.63;;
81306;SDS011;70775;50.846;3.224;2024-01-16T02:47:31;11.38;;;6.03;;
81306;SDS011;70775;50.846;3.224;2024-01-16T02:49:57;10.90;;;5.55;;
81306;SDS011;70775;50.846;3.224;2024-01-16T02:52:24;15.73;;;5.65;;
81306;SDS011;70775;50.846;3.224;2024-01-16T02:54:50;22.13;;;6.32;;
81306;SDS011;70775;50.846;3.224;2024-01-16T02:57:16;14.18;;;6.45;;
81306;SDS011;70775;50.846;3.224;2024-01-16T02:59:43;14.20;;;6.10;;
81306;SDS011;70775;50.846;3.224;2024-01-16T03:02:09;14.88;;;5.75;;
81306;SDS011;70775;50.846;3.224;2024-01-16T03:04:36;16.90;;;5.88;;
81306;SDS011;70775;50.846;3.224;2024-01-16T03:07:02;12.95;;;5.55;;
81306;SDS011;70775;50.846;3.224;2024-01-16T03:09:27;14.10;;;6.25;;
81306;SDS011;70775;50.846;3.224;2024-01-16T03:11:53;10.68;;;5.55;;
81306;SDS011;70775;50.846;3.224;2024-01-16T03:14:19;16.15;;;6.50;;
81306;SDS011;70775;50.846;3.224;2024-01-16T03:16:45;14.80;;;6.38;;
81306;SDS011;70775;50.846;3.224;2024-01-16T03:19:11;11.20;;;4.95;;
81306;SDS011;70775;50.846;3.224;2024-01-16T03:21:37;16.08;;;5.70;;
81306;SDS011;70775;50.846;3.224;2024-01-16T03:24:04;14.15;;;5.47;;
81306;SDS011;70775;50.846;3.224;2024-01-16T03:26:31;15.50;;;6.13;;
81306;SDS011;70775;50.846;3.224;2024-01-16T03:28:57;12.00;;;4.78;;
81306;SDS011;70775;50.846;3.224;2024-01-16T03:31:23;16.45;;;5.68;;
81306;SDS011;70775;50.846;3.224;2024-01-16T03:33:49;11.18;;;4.72;;
81306;SDS011;70775;50.846;3.224;2024-01-16T03:36:15;8.25;;;3.25;;
81306;SDS011;70775;50.846;3.224;2024-01-16T03:38:44;8.95;;;4.53;;
81306;SDS011;70775;50.846;3.224;2024-01-16T03:41:13;22.73;;;5.80;;
81306;SDS011;70775;50.846;3.224;2024-01-16T03:43:40;10.02;;;3.63;;
81306;SDS011;70775;50.846;3.224;2024-01-16T03:46:05;8.73;;;3.75;;
81306;SDS011;70775;50.846;3.224;2024-01-16T03:48:31;14.43;;;6.45;;
81306;SDS011;70775;50.846;3.224;2024-01-16T03:50:57;9.77;;;3.78;;
81306;SDS011;70775;50.846;3.224;2024-01-16T03:53:24;13.63;;;5.25;;
81306;SDS011;70775;50.846;3.224;2024-01-16T03:55:49;9.63;;;4.25;;
81306;SDS011;70775;50.846;3.224;2024-01-16T03:58:16;10.60;;;5.03;;
81306;SDS011;70775;50.846;3.224;2024-01-16T04:00:42;15.07;;;5.53;;
81306;SDS011;70775;50.846;3.224;2024-01-16T04:03:09;13.10;;;6.32;;
81306;SDS011;70775;50.846;3.224;2024-01-16T04:05:34;11.35;;;4.68;;
81306;SDS011;70775;50.846;3.224;2024-01-16T04:08:00;13.18;;;4.65;;
81306;SDS011;70775;50.846;3.224;2024-01-16T04:10:26;9.65;;;4.32;;
81306;SDS011;70775;50.846;3.224;2024-01-16T04:12:51;13.15;;;4.50;;
81306;SDS011;70775;50.846;3.224;2024-01-16T04:15:17;15.38;;;5.65;;
81306;SDS011;70775;50.846;3.224;2024-01-16T04:17:43;14.63;;;5.90;;
81306;SDS011;70775;50.846;3.224;2024-01-16T04:20:09;15.25;;;4.63;;
81306;SDS011;70775;50.846;3.224;2024-01-16T04:22:35;11.60;;;4.90;;
81306;SDS011;70775;50.846;3.224;2024-01-16T04:25:00;17.48;;;5.30;;
81306;SDS011;70775;50.846;3.224;2024-01-16T04:27:27;13.93;;;4.68;;
81306;SDS011;70775;50.846;3.224;2024-01-16T04:29:54;13.30;;;5.30;;
81306;SDS011;70775;50.846;3.224;2024-01-16T04:32:19;7.47;;;4.53;;
81306;SDS011;70775;50.846;3.224;2024-01-16T04:34:46;18.08;;;6.43;;
81306;SDS011;70775;50.846;3.224;2024-01-16T04:37:12;15.10;;;6.47;;
81306;SDS011;70775;50.846;3.224;2024-01-16T04:39:38;11.80;;;5.45;;
81306;SDS011;70775;50.846;3.224;2024-01-16T04:42:04;10.60;;;4.72;;
81306;SDS011;70775;50.846;3.224;2024-01-16T04:44:29;15.32;;;6.32;;
81306;SDS011;70775;50.846;3.224;2024-01-16T04:46:55;11.77;;;5.25;;
81306;SDS011;70775;50.846;3.224;2024-01-16T04:49:22;13.02;;;4.75;;
81306;SDS011;70775;50.846;3.224;2024-01-16T04:51:48;11.70;;;5.82;;
81306;SDS011;70775;50.846;3.224;2024-01-16T04:54:14;12.93;;;5.28;;
81306;SDS011;70775;50.846;3.224;2024-01-16T04:56:41;14.63;;;5.40;;
81306;SDS011;70775;50.846;3.224;2024-01-16T04:59:07;13.80;;;5.88;;
81306;SDS011;70775;50.846;3.224;2024-01-16T05:01:33;12.35;;;4.88;;
81306;SDS011;70775;50.846;3.224;2024-01-16T05:03:58;13.40;;;5.07;;
81306;SDS011;70775;50.846;3.224;2024-01-16T05:06:24;15.98;;;4.28;;
81306;SDS011;70775;50.846;3.224;2024-01-16T05:08:50;16.23;;;5.68;;
81306;SDS011;70775;50.846;3.224;2024-01-16T05:11:18;16.17;;;6.13;;
81306;SDS011;70775;50.846;3.224;2024-01-16T05:13:45;10.80;;;5.03;;
81306;SDS011;70775;50.846;3.224;2024-01-16T05:16:10;16.70;;;6.88;;
81306;SDS011;70775;50.846;3.224;2024-01-16T05:18:36;12.60;;;5.43;;
81306;SDS011;70775;50.846;3.224;2024-01-16T05:21:01;16.95;;;5.82;;
81306;SDS011;70775;50.846;3.224;2024-01-16T05:23:28;16.55;;;6.78;;
81306;SDS011;70775;50.846;3.224;2024-01-16T05:25:54;12.52;;;5.95;;
81306;SDS011;70775;50.846;3.224;2024-01-16T05:28:19;7.10;;;4.43;;
81306;SDS011;70775;50.846;3.224;2024-01-16T05:30:45;13.82;;;5.82;;
81306;SDS011;70775;50.846;3.224;2024-01-16T05:33:11;20.35;;;6.53;;
81306;SDS011;70775;50.846;3.224;2024-01-16T05:35:36;16.52;;;5.00;;
81306;SDS011;70775;50.846;3.224;2024-01-16T05:38:02;10.55;;;4.13;;
81306;SDS011;70775;50.846;3.224;2024-01-16T05:40:29;7.03;;;4.22;;
81306;SDS011;70775;50.846;3.224;2024-01-16T05:42:54;9.73;;;4.03;;
81306;SDS011;70775;50.846;3.224;2024-01-16T05:45:21;16.23;;;6.20;;
81306;SDS011;70775;50.846;3.224;2024-01-16T05:47:47;9.10;;;4.55;;
81306;SDS011;70775;50.846;3.224;2024-01-16T05:50:12;18.73;;;5.75;;
81306;SDS011;70775;50.846;3.224;2024-01-16T05:52:38;24.35;;;6.97;;
81306;SDS011;70775;50.846;3.224;2024-01-16T05:55:05;20.25;;;6.47;;
81306;SDS011;70775;50.846;3.224;2024-01-16T05:57:32;10.73;;;5.68;;
81306;SDS011;70775;50.846;3.224;2024-01-16T05:59:58;12.68;;;5.30;;
81306;SDS011;70775;50.846;3.224;2024-01-16T06:02:29;20.90;;;5.13;;
81306;SDS011;70775;50.846;3.224;2024-01-16T06:04:55;14.57;;;5.47;;
81306;SDS011;70775;50.846;3.224;2024-01-16T06:07:21;8.45;;;4.85;;
81306;SDS011;70775;50.846;3.224;2024-01-16T06:09:47;7.85;;;4.07;;
81306;SDS011;70775;50.846;3.224;2024-01-16T06:12:13;12.93;;;6.15;;
81306;SDS011;70775;50.846;3.224;2024-01-16T06:14:39;14.98;;;6.03;;
81306;SDS011;70775;50.846;3.224;2024-01-16T06:17:05;12.30;;;5.03;;
81306;SDS011;70775;50.846;3.224;2024-01-16T06:19:31;12.75;;;5.78;;
81306;SDS011;70775;50.846;3.224;2024-01-16T06:21:58;17.17;;;6.05;;
81306;SDS011;70775;50.846;3.224;2024-01-16T06:24:25;17.92;;;6.30;;
81306;SDS011;70775;50.846;3.224;2024-01-16T06:26:50;15.80;;;6.32;;
81306;SDS011;70775;50.846;3.224;2024-01-16T06:29:16;18.17;;;6.07;;
81306;SDS011;70775;50.846;3.224;2024-01-16T06:31:42;21.08;;;6.72;;
81306;SDS011;70775;50.846;3.224;2024-01-16T06:34:07;15.07;;;6.82;;
81306;SDS011;70775;50.846;3.224;2024-01-16T06:36:33;20.80;;;7.13;;
81306;SDS011;70775;50.846;3.224;2024-01-16T06:38:59;14.05;;;6.72;;
81306;SDS011;70775;50.846;3.224;2024-01-16T06:41:26;22.80;;;7.05;;
81306;SDS011;70775;50.846;3.224;2024-01-16T06:43:52;16.05;;;7.57;;
81306;SDS011;70775;50.846;3.224;2024-01-16T06:46:17;22.63;;;9.10;;
81306;SDS011;70775;50.846;3.224;2024-01-16T06:48:43;16.98;;;7.80;;
81306;SDS011;70775;50.846;3.224;2024-01-16T06:51:08;24.30;;;7.75;;
81306;SDS011;70775;50.846;3.224;2024-01-16T06:53:35;23.13;;;8.38;;
81306;SDS011;70775;50.846;3.224;2024-01-16T06:56:01;22.30;;;8.05;;
81306;SDS011;70775;50.846;3.224;2024-01-16T06:58:28;13.98;;;6.70;;
81306;SDS011;70775;50.846;3.224;2024-01-16T07:00:53;24.48;;;8.27;;
81306;SDS011;70775;50.846;3.224;2024-01-16T07:03:19;20.17;;;8.23;;
81306;SDS011;70775;50.846;3.224;2024-01-16T07:05:45;17.17;;;7.70;;
81306;SDS011;70775;50.846;3.224;2024-01-16T07:08:10;18.38;;;7.28;;
81306;SDS011;70775;50.846;3.224;2024-01-16T07:10:36;17.02;;;7.68;;
81306;SDS011;70775;50.846;3.224;2024-01-16T07:13:01;21.42;;;7.80;;
81306;SDS011;70775;50.846;3.224;2024-01-16T07:15:27;22.55;;;7.47;;
81306;SDS011;70775;50.846;3.224;2024-01-16T07:17:53;13.02;;;7.50;;
81306;SDS011;70775;50.846;3.224;2024-01-16T07:20:19;23.50;;;7.45;;
81306;SDS011;70775;50.846;3.224;2024-01-16T07:22:45;21.27;;;6.60;;
81306;SDS011;70775;50.846;3.224;2024-01-16T07:25:11;20.27;;;8.82;;
81306;SDS011;70775;50.846;3.224;2024-01-16T07:27:36;20.85;;;7.80;;
81306;SDS011;70775;50.846;3.224;2024-01-16T07:30:06;25.27;;;7.03;;
81306;SDS011;70775;50.846;3.224;2024-01-16T07:32:32;22.35;;;8.02;;
81306;SDS011;70775;50.846;3.224;2024-01-16T07:34:58;13.43;;;6.80;;
81306;SDS011;70775;50.846;3.224;2024-01-16T07:37:24;16.48;;;5.93;;
81306;SDS011;70775;50.846;3.224;2024-01-16T07:39:49;16.95;;;7.22;;
81306;SDS011;70775;50.846;3.224;2024-01-16T07:42:15;15.32;;;7.45;;
81306;SDS011;70775;50.846;3.224;2024-01-16T07:44:41;16.60;;;7.15;;
81306;SDS011;70775;50.846;3.224;2024-01-16T07:47:06;24.10;;;8.88;;
81306;SDS011;70775;50.846;3.224;2024-01-16T07:49:32;21.27;;;8.23;;
81306;SDS011;70775;50.846;3.224;2024-01-16T07:51:58;17.75;;;7.60;;
81306;SDS011;70775;50.846;3.224;2024-01-16T07:54:24;15.55;;;7.93;;
81306;SDS011;70775;50.846;3.224;2024-01-16T07:56:51;18.50;;;7.53;;
81306;SDS011;70775;50.846;3.224;2024-01-16T07:59:16;21.13;;;8.45;;
81306;SDS011;70775;50.846;3.224;2024-01-16T08:01:42;15.90;;;7.55;;
81306;SDS011;70775;50.846;3.224;2024-01-16T08:04:08;15.57;;;8.20;;
81306;SDS011;70775;50.846;3.224;2024-01-16T08:06:33;14.73;;;7.88;;
81306;SDS011;70775;50.846;3.224;2024-01-16T08:08:59;24.77;;;8.25;;
81306;SDS011;70775;50.846;3.224;2024-01-16T08:11:25;16.88;;;9.27;;
81306;SDS011;70775;50.846;3.224;2024-01-16T08:13:51;23.92;;;8.45;;
81306;SDS011;70775;50.846;3.224;2024-01-16T08:16:16;25.10;;;8.73;;
81306;SDS011;70775;50.846;3.224;2024-01-16T08:18:42;27.63;;;9.20;;
81306;SDS011;70775;50.846;3.224;2024-01-16T08:21:07;19.10;;;9.27;;
81306;SDS011;70775;50.846;3.224;2024-01-16T08:23:33;28.80;;;9.00;;
81306;SDS011;70775;50.846;3.224;2024-01-16T08:25:59;18.13;;;9.70;;
81306;SDS011;70775;50.846;3.224;2024-01-16T08:28:26;23.77;;;8.95;;
81306;SDS011;70775;50.846;3.224;2024-01-16T08:30:52;22.40;;;9.25;;
81306;SDS011;70775;50.846;3.224;2024-01-16T08:33:18;26.83;;;9.75;;
81306;SDS011;70775;50.846;3.224;2024-01-16T08:35:44;23.33;;;10.63;;
81306;SDS011;70775;50.846;3.224;2024-01-16T08:38:09;23.27;;;11.80;;
81306;SDS011;70775;50.846;3.224;2024-01-16T08:40:35;21.20;;;10.75;;
81306;SDS011;70775;50.846;3.224;2024-01-16T08:43:01;19.48;;;10.65;;
81306;SDS011;70775;50.846;3.224;2024-01-16T08:45:26;17.58;;;10.52;;
81306;SDS011;70775;50.846;3.224;2024-01-16T08:47:52;24.15;;;10.43;;
81306;SDS011;70775;50.846;3.224;2024-01-16T08:50:18;19.52;;;8.65;;
81306;SDS011;70775;50.846;3.224;2024-01-16T08:52:43;19.80;;;10.05;;
81306;SDS011;70775;50.846;3.224;2024-01-16T08:55:09;22.48;;;10.63;;
81306;SDS011;70775;50.846;3.224;2024-01-16T08:57:36;20.52;;;9.73;;
81306;SDS011;70775;50.846;3.224;2024-01-16T09:00:03;19.63;;;10.02;;
81306;SDS011;70775;50.846;3.224;2024-01-16T09:02:33;21.65;;;8.75;;
81306;SDS011;70775;50.846;3.224;2024-01-16T09:05:00;24.98;;;7.90;;
81306;SDS011;70775;50.846;3.224;2024-01-16T09:07:26;18.73;;;8.75;;
81306;SDS011;70775;50.846;3.224;2024-01-16T09:09:52;22.98;;;8.65;;
81306;SDS011;70775;50.846;3.224;2024-01-16T09:12:18;18.27;;;8.10;;
81306;SDS011;70775;50.846;3.224;2024-01-16T09:14:44;18.92;;;8.27;;
81306;SDS011;70775;50.846;3.224;2024-01-16T09:17:10;20.23;;;8.73;;
81306;SDS011;70775;50.846;3.224;2024-01-16T09:19:35;19.75;;;7.07;;
81306;SDS011;70775;50.846;3.224;2024-01-16T09:22:01;20.88;;;7.15;;
81306;SDS011;70775;50.846;3.224;2024-01-16T09:24:28;18.88;;;8.52;;
81306;SDS011;70775;50.846;3.224;2024-01-16T09:26:54;21.02;;;8.57;;
81306;SDS011;70775;50.846;3.224;2024-01-16T09:29:19;20.27;;;8.30;;
81306;SDS011;70775;50.846;3.224;2024-01-16T09:31:46;21.00;;;8.77;;
81306;SDS011;70775;50.846;3.224;2024-01-16T09:34:12;19.00;;;9.27;;
81306;SDS011;70775;50.846;3.224;2024-01-16T09:36:38;24.30;;;9.07;;
81306;SDS011;70775;50.846;3.224;2024-01-16T09:39:05;18.85;;;8.88;;
81306;SDS011;70775;50.846;3.224;2024-01-16T09:41:36;17.02;;;8.18;;
81306;SDS011;70775;50.846;3.224;2024-01-16T09:44:03;22.45;;;8.88;;
81306;SDS011;70775;50.846;3.224;2024-01-16T09:46:30;18.55;;;8.55;;
81306;SDS011;70775;50.846;3.224;2024-01-16T09:48:56;24.45;;;9.32;;
81306;SDS011;70775;50.846;3.224;2024-01-16T09:51:24;19.05;;;8.85;;
81306;SDS011;70775;50.846;3.224;2024-01-16T09:53:50;16.33;;;7.40;;
81306;SDS011;70775;50.846;3.224;2024-01-16T09:56:16;15.48;;;8.65;;
81306;SDS011;70775;50.846;3.224;2024-01-16T09:58:45;18.67;;;9.88;;
81306;SDS011;70775;50.846;3.224;2024-01-16T10:01:14;24.45;;;8.90;;
81306;SDS011;70775;50.846;3.224;2024-01-16T10:03:40;20.33;;;9.40;;
81306;SDS011;70775;50.846;3.224;2024-01-16T10:06:09;19.63;;;9.40;;
81306;SDS011;70775;50.846;3.224;2024-01-16T10:08:37;27.27;;;10.55;;
81306;SDS011;70775;50.846;3.224;2024-01-16T10:11:03;22.90;;;10.60;;
81306;SDS011;70775;50.846;3.224;2024-01-16T10:13:29;19.33;;;10.77;;
81306;SDS011;70775;50.846;3.224;2024-01-16T10:15:57;23.55;;;10.00;;
81306;SDS011;70775;50.846;3.224;2024-01-16T10:18:25;20.77;;;7.95;;
81306;SDS011;70775;50.846;3.224;2024-01-16T10:20:51;13.25;;;6.57;;
81306;SDS011;70775;50.846;3.224;2024-01-16T10:23:23;21.05;;;9.23;;
81306;SDS011;70775;50.846;3.224;2024-01-16T10:28:41;18.55;;;7.22;;
81306;SDS011;70775;50.846;3.224;2024-01-16T10:31:09;15.43;;;6.60;;
81306;SDS011;70775;50.846;3.224;2024-01-16T10:33:36;18.73;;;7.88;;
81306;SDS011;70775;50.846;3.224;2024-01-16T10:36:13;15.60;;;7.85;;
81306;SDS011;70775;50.846;3.224;2024-01-16T10:38:44;13.85;;;7.43;;
81306;SDS011;70775;50.846;3.224;2024-01-16T10:41:11;11.70;;;4.75;;
81306;SDS011;70775;50.846;3.224;2024-01-16T10:43:37;12.95;;;6.25;;
81306;SDS011;70775;50.846;3.224;2024-01-16T10:46:07;25.38;;;7.80;;
81306;SDS011;70775;50.846;3.224;2024-01-16T10:48:37;15.50;;;7.45;;
81306;SDS011;70775;50.846;3.224;2024-01-16T10:51:07;24.85;;;9.75;;
81306;SDS011;70775;50.846;3.224;2024-01-16T10:53:37;15.73;;;7.07;;
81306;SDS011;70775;50.846;3.224;2024-01-16T10:56:05;19.00;;;7.45;;
81306;SDS011;70775;50.846;3.224;2024-01-16T10:58:35;20.65;;;8.57;;
81306;SDS011;70775;50.846;3.224;2024-01-16T11:01:03;19.38;;;7.97;;
81306;SDS011;70775;50.846;3.224;2024-01-16T11:03:38;16.95;;;7.15;;
81306;SDS011;70775;50.846;3.224;2024-01-16T11:06:08;24.35;;;7.78;;
81306;SDS011;70775;50.846;3.224;2024-01-16T11:08:36;13.20;;;6.05;;
81306;SDS011;70775;50.846;3.224;2024-01-16T11:11:02;15.00;;;6.85;;
81306;SDS011;70775;50.846;3.224;2024-01-16T11:13:33;13.98;;;6.70;;
81306;SDS011;70775;50.846;3.224;2024-01-16T11:15:59;14.07;;;6.97;;
81306;SDS011;70775;50.846;3.224;2024-01-16T11:18:27;15.82;;;6.47;;
81306;SDS011;70775;50.846;3.224;2024-01-16T11:20:54;15.38;;;5.85;;
81306;SDS011;70775;50.846;3.224;2024-01-16T11:23:21;13.50;;;5.60;;
81306;SDS011;70775;50.846;3.224;2024-01-16T11:25:47;15.35;;;6.38;;
81306;SDS011;70775;50.846;3.224;2024-01-16T11:28:13;10.95;;;5.20;;
81306;SDS011;70775;50.846;3.224;2024-01-16T11:30:39;6.57;;;4.45;;
81306;SDS011;70775;50.846;3.224;2024-01-16T11:33:06;12.68;;;5.70;;
81306;SDS011;70775;50.846;3.224;2024-01-16T11:35:35;14.38;;;4.88;;
81306;SDS011;70775;50.846;3.224;2024-01-16T11:40:34;15.50;;;6.13;;
81306;SDS011;70775;50.846;3.224;2024-01-16T11:43:35;10.43;;;5.97;;
81306;SDS011;70775;50.846;3.224;2024-01-16T11:46:01;18.15;;;6.78;;
81306;SDS011;70775;50.846;3.224;2024-01-16T11:48:27;17.30;;;6.45;;
81306;SDS011;70775;50.846;3.224;2024-01-16T11:50:53;10.75;;;5.22;;
81306;SDS011;70775;50.846;3.224;2024-01-16T11:58:53;13.73;;;6.57;;
81306;SDS011;70775;50.846;3.224;2024-01-16T12:01:31;14.80;;;5.60;;
81306;SDS011;70775;50.846;3.224;2024-01-16T12:04:07;14.23;;;5.57;;
81306;SDS011;70775;50.846;3.224;2024-01-16T12:06:35;12.55;;;5.28;;
81306;SDS011;70775;50.846;3.224;2024-01-16T12:11:38;13.55;;;5.30;;
81306;SDS011;70775;50.846;3.224;2024-01-16T12:14:04;15.00;;;5.90;;
81306;SDS011;70775;50.846;3.224;2024-01-16T12:16:30;15.50;;;5.38;;
81306;SDS011;70775;50.846;3.224;2024-01-16T12:19:08;9.25;;;3.97;;
81306;SDS011;70775;50.846;3.224;2024-01-16T12:21:34;12.55;;;4.80;;
81306;SDS011;70775;50.846;3.224;2024-01-16T12:24:04;14.30;;;5.47;;
81306;SDS011;70775;50.846;3.224;2024-01-16T12:26:30;11.32;;;3.72;;
81306;SDS011;70775;50.846;3.224;2024-01-16T12:28:58;13.65;;;4.72;;
81306;SDS011;70775;50.846;3.224;2024-01-16T12:31:23;16.02;;;4.85;;
81306;SDS011;70775;50.846;3.224;2024-01-16T12:33:50;15.43;;;4.18;;
81306;SDS011;70775;50.846;3.224;2024-01-16T12:36:16;12.45;;;4.20;;
81306;SDS011;70775;50.846;3.224;2024-01-16T12:38:42;10.25;;;3.65;;
81306;SDS011;70775;50.846;3.224;2024-01-16T12:41:08;11.15;;;3.88;;
81306;SDS011;70775;50.846;3.224;2024-01-16T12:43:35;14.82;;;4.03;;
81306;SDS011;70775;50.846;3.224;2024-01-16T12:46:04;9.90;;;4.35;;
81306;SDS011;70775;50.846;3.224;2024-01-16T12:48:31;13.93;;;5.05;;
81306;SDS011;70775;50.846;3.224;2024-01-16T12:51:00;11.82;;;5.07;;
81306;SDS011;70775;50.846;3.224;2024-01-16T12:53:28;10.18;;;4.72;;
81306;SDS011;70775;50.846;3.224;2024-01-16T12:56:00;14.75;;;5.57;;
81306;SDS011;70775;50.846;3.224;2024-01-16T12:58:32;9.40;;;3.88;;
81306;SDS011;70775;50.846;3.224;2024-01-16T13:01:20;8.05;;;4.50;;
81306;SDS011;70775;50.846;3.224;2024-01-16T13:03:50;10.98;;;4.47;;
81306;SDS011;70775;50.846;3.224;2024-01-16T13:06:20;7.88;;;4.18;;
81306;SDS011;70775;50.846;3.224;2024-01-16T13:08:50;9.35;;;4.28;;
81306;SDS011;70775;50.846;3.224;2024-01-16T13:11:16;10.85;;;4.05;;
81306;SDS011;70775;50.846;3.224;2024-01-16T13:13:48;13.85;;;5.35;;
81306;SDS011;70775;50.846;3.224;2024-01-16T13:16:17;7.82;;;3.60;;
81306;SDS011;70775;50.846;3.224;2024-01-16T13:18:42;11.95;;;3.58;;
81306;SDS011;70775;50.846;3.224;2024-01-16T13:21:08;8.35;;;3.25;;
81306;SDS011;70775;50.846;3.224;2024-01-16T13:23:34;4.35;;;2.25;;
81306;SDS011;70775;50.846;3.224;2024-01-16T13:26:00;8.23;;;2.60;;
81306;SDS011;70775;50.846;3.224;2024-01-16T13:28:28;8.20;;;2.83;;
81306;SDS011;70775;50.846;3.224;2024-01-16T13:30:54;9.82;;;3.10;;
81306;SDS011;70775;50.846;3.224;2024-01-16T13:33:22;7.10;;;2.97;;
81306;SDS011;70775;50.846;3.224;2024-01-16T13:35:48;5.38;;;2.50;;
81306;SDS011;70775;50.846;3.224;2024-01-16T13:38:14;4.88;;;2.42;;
81306;SDS011;70775;50.846;3.224;2024-01-16T13:40:44;8.80;;;2.95;;
81306;SDS011;70775;50.846;3.224;2024-01-16T13:43:09;12.73;;;2.63;;
81306;SDS011;70775;50.846;3.224;2024-01-16T13:45:36;5.70;;;2.25;;
81306;SDS011;70775;50.846;3.224;2024-01-16T13:48:03;17.58;;;3.05;;
81306;SDS011;70775;50.846;3.224;2024-01-16T13:50:30;7.80;;;3.05;;
81306;SDS011;70775;50.846;3.224;2024-01-16T13:52:58;4.97;;;2.28;;
81306;SDS011;70775;50.846;3.224;2024-01-16T13:55:24;6.38;;;2.30;;
81306;SDS011;70775;50.846;3.224;2024-01-16T13:57:49;13.38;;;3.80;;
81306;SDS011;70775;50.846;3.224;2024-01-16T14:00:15;8.13;;;3.10;;
81306;SDS011;70775;50.846;3.224;2024-01-16T14:02:42;12.40;;;3.72;;
81306;SDS011;70775;50.846;3.224;2024-01-16T14:05:12;8.18;;;3.00;;
81306;SDS011;70775;50.846;3.224;2024-01-16T14:07:40;6.38;;;2.67;;
81306;SDS011;70775;50.846;3.224;2024-01-16T14:10:10;7.60;;;3.30;;
81306;SDS011;70775;50.846;3.224;2024-01-16T14:12:40;12.48;;;3.00;;
81306;SDS011;70775;50.846;3.224;2024-01-16T14:15:13;9.57;;;2.80;;
81306;SDS011;70775;50.846;3.224;2024-01-16T14:17:52;9.98;;;3.25;;
81306;SDS011;70775;50.846;3.224;2024-01-16T14:20:20;6.13;;;2.97;;
81306;SDS011;70775;50.846;3.224;2024-01-16T14:22:48;5.43;;;2.70;;
81306;SDS011;70775;50.846;3.224;2024-01-16T14:25:15;9.48;;;3.63;;
81306;SDS011;70775;50.846;3.224;2024-01-16T14:27:44;12.82;;;4.63;;
81306;SDS011;70775;50.846;3.224;2024-01-16T14:30:20;12.35;;;4.45;;
81306;SDS011;70775;50.846;3.224;2024-01-16T14:32:46;11.65;;;4.10;;
81306;SDS011;70775;50.846;3.224;2024-01-16T14:35:13;11.07;;;4.43;;
81306;SDS011;70775;50.846;3.224;2024-01-16T14:37:39;10.75;;;4.88;;
81306;SDS011;70775;50.846;3.224;2024-01-16T14:40:06;11.70;;;4.07;;
81306;SDS011;70775;50.846;3.224;2024-01-16T14:42:37;13.65;;;3.83;;
81306;SDS011;70775;50.846;3.224;2024-01-16T14:45:07;10.18;;;4.40;;
81306;SDS011;70775;50.846;3.224;2024-01-16T14:47:35;12.23;;;4.28;;
81306;SDS011;70775;50.846;3.224;2024-01-16T14:50:01;8.20;;;3.90;;